Time;durP1;ratioP1;P1;durP2;ratioP2;P2;SDS_P1;SDS_P2;PMS_P1;PMS_P2;Temp;Humidity;BMP_temperature;BMP_pressure;BME280_temperature;BME280_humidity;BME280_pressure;Samples;Min_cycle;Max_cycle;Signal;HPM_P1;HPM_P2
2024/04/08 00:00:19;;;;;;;21.50;3.50;;;9.90;99.90;;;;;;5541195;26;19989;-48
2024/04/08 00:02:45;;;;;;;22.67;3.58;;;9.90;99.90;;;;;;5541175;26;19993;-49
2024/04/08 00:05:11;;;;;;;26.50;4.03;;;10.00;99.90;;;;;;5479466;26;19985;-48
2024/04/08 00:07:36;;;;;;;23.60;3.75;;;10.00;99.90;;;;;;5541263;26;19986;-50
2024/04/08 00:10:03;;;;;;;21.17;3.58;;;9.90;99.90;;;;;;5541144;26;20020;-47
2024/04/08 00:12:28;;;;;;;23.33;3.55;;;9.90;99.90;;;;;;5510928;26;20172;-48
2024/04/08 00:14:54;;;;;;;22.13;3.45;;;9.90;99.90;;;;;;5545063;26;20025;-50
2024/04/08 00:17:20;;;;;;;17.98;3.03;;;9.90;99.90;;;;;;5545131;26;20076;-50
2024/04/08 00:19:45;;;;;;;26.35;3.47;;;9.90;99.90;;;;;;5544805;26;20155;-48
2024/04/08 00:22:12;;;;;;;25.48;3.92;;;9.90;99.90;;;;;;5545017;26;19989;-49
2024/04/08 00:24:37;;;;;;;23.83;3.55;;;9.90;99.90;;;;;;5513489;26;19990;-48
2024/04/08 00:27:03;;;;;;;18.55;2.92;;;9.90;99.90;;;;;;5544520;26;19997;-51
2024/04/08 00:29:29;;;;;;;23.25;3.65;;;9.90;99.90;;;;;;5544870;26;19986;-50
2024/04/08 00:31:55;;;;;;;19.75;2.97;;;9.90;99.90;;;;;;5544470;26;20002;-49
2024/04/08 00:34:20;;;;;;;23.33;3.72;;;9.90;99.90;;;;;;5544797;26;19990;-49
2024/04/08 00:36:46;;;;;;;22.65;3.97;;;9.90;99.90;;;;;;5544842;26;19996;-51
2024/04/08 00:39:12;;;;;;;25.35;3.63;;;9.90;99.90;;;;;;5544674;26;20217;-51
2024/04/08 00:41:38;;;;;;;23.55;3.75;;;9.90;99.90;;;;;;5544755;26;20093;-50
2024/04/08 00:44:03;;;;;;;23.88;4.10;;;10.00;99.90;;;;;;5544374;26;19997;-51
2024/04/08 00:46:29;;;;;;;27.13;4.32;;;9.90;99.90;;;;;;5544778;26;19992;-51
2024/04/08 00:48:55;;;;;;;25.92;3.20;;;10.00;99.90;;;;;;5544538;26;19986;-51
2024/04/08 00:51:20;;;;;;;18.38;3.15;;;10.00;99.90;;;;;;5482591;26;19985;-51
2024/04/08 00:53:47;;;;;;;31.25;4.43;;;10.00;99.90;;;;;;5512798;26;20197;-50
2024/04/08 00:56:13;;;;;;;31.00;4.82;;;10.00;99.90;;;;;;5482610;26;20171;-51
2024/04/08 00:58:38;;;;;;;23.23;4.63;;;10.00;99.90;;;;;;5513035;26;20000;-51
2024/04/08 01:01:05;;;;;;;28.63;4.05;;;10.10;99.90;;;;;;5513023;26;20155;-51
2024/04/08 01:03:31;;;;;;;25.95;3.53;;;10.10;99.90;;;;;;5544095;26;20035;-51
2024/04/08 01:05:57;;;;;;;27.92;3.83;;;10.10;99.90;;;;;;5543941;26;19989;-51
2024/04/08 01:08:23;;;;;;;24.02;4.00;;;10.10;99.90;;;;;;5512566;26;20159;-51
2024/04/08 01:10:49;;;;;;;27.80;4.63;;;10.20;99.90;;;;;;5512849;26;19986;-51
2024/04/08 01:13:14;;;;;;;26.20;4.00;;;10.20;99.90;;;;;;5543995;26;19996;-44
2024/04/08 01:15:40;;;;;;;25.65;3.78;;;10.20;99.90;;;;;;5543958;26;19992;-44
2024/04/08 01:18:06;;;;;;;27.55;3.72;;;10.20;99.90;;;;;;5482297;26;19985;-46
2024/04/08 01:20:32;;;;;;;26.92;4.68;;;10.20;99.90;;;;;;5544105;26;19989;-47
2024/04/08 01:22:57;;;;;;;24.90;3.30;;;10.30;99.90;;;;;;5543637;26;20045;-46
2024/04/08 01:25:23;;;;;;;21.70;3.42;;;10.30;99.90;;;;;;5543895;26;19989;-44
2024/04/08 01:27:48;;;;;;;23.85;3.60;;;10.20;99.90;;;;;;5543720;26;19993;-45
2024/04/08 01:30:20;;;;;;;23.27;3.22;;;10.30;99.90;;;;;;5512609;26;20031;-46
2024/04/08 01:32:45;;;;;;;26.92;4.22;;;10.20;99.90;;;;;;5543891;26;19992;-44
2024/04/08 01:35:11;;;;;;;25.92;3.70;;;10.20;99.90;;;;;;5544036;26;19986;-44
2024/04/08 01:37:37;;;;;;;24.23;4.22;;;10.20;99.90;;;;;;5543969;26;19997;-46
2024/04/08 01:40:02;;;;;;;26.15;3.85;;;10.30;99.90;;;;;;5543762;26;19994;-46
2024/04/08 01:42:28;;;;;;;34.08;5.13;;;10.30;99.90;;;;;;5511853;26;20044;-45
2024/04/08 01:44:54;;;;;;;21.77;3.25;;;10.40;99.90;;;;;;5543684;26;19992;-47
2024/04/08 01:47:19;;;;;;;22.55;3.72;;;10.40;99.90;;;;;;5543558;26;20013;-44
2024/04/08 01:49:45;;;;;;;24.63;4.00;;;10.40;99.90;;;;;;5543317;26;19996;-46
2024/04/08 01:52:11;;;;;;;28.90;4.53;;;10.40;99.90;;;;;;5543639;26;19989;-46
2024/04/08 01:54:37;;;;;;;30.70;3.72;;;10.40;99.90;;;;;;5543553;26;19986;-46
2024/04/08 01:57:02;;;;;;;26.10;3.70;;;10.40;99.90;;;;;;5543487;26;19985;-44
2024/04/08 01:59:28;;;;;;;22.55;3.25;;;10.50;99.90;;;;;;5543386;26;19989;-47
2024/04/08 02:01:54;;;;;;;25.52;4.15;;;10.40;99.90;;;;;;5511525;26;19990;-47
2024/04/08 02:04:19;;;;;;;25.33;4.28;;;10.50;99.90;;;;;;5543501;26;19997;-47
2024/04/08 02:06:45;;;;;;;22.17;3.70;;;10.50;99.90;;;;;;5543084;26;19997;-44
2024/04/08 02:09:10;;;;;;;28.17;5.25;;;10.50;99.90;;;;;;5543412;26;19996;-44
2024/04/08 02:11:36;;;;;;;26.17;3.70;;;10.50;99.90;;;;;;5543237;26;19989;-46
2024/04/08 02:14:02;;;;;;;26.25;4.22;;;10.50;99.90;;;;;;5543062;26;19997;-46
2024/04/08 02:16:28;;;;;;;24.83;3.70;;;10.60;99.90;;;;;;5543229;26;20033;-45
2024/04/08 02:18:53;;;;;;;25.45;4.05;;;10.60;99.90;;;;;;5543472;26;20009;-45
2024/04/08 02:21:19;;;;;;;34.05;4.43;;;10.60;99.90;;;;;;5543206;26;19986;-46
2024/04/08 02:23:45;;;;;;;29.92;4.10;;;10.60;99.90;;;;;;5542875;26;20166;-45
2024/04/08 02:26:11;;;;;;;20.80;4.13;;;10.60;99.90;;;;;;5542996;26;19993;-47
2024/04/08 02:28:37;;;;;;;17.73;3.80;;;10.60;99.90;;;;;;5511806;26;20163;-47
2024/04/08 02:31:03;;;;;;;29.88;4.82;;;10.60;99.90;;;;;;5542933;26;19985;-46
2024/04/08 02:33:28;;;;;;;19.98;4.63;;;10.60;99.90;;;;;;5480927;26;19992;-47
2024/04/08 02:36:01;;;;;;;26.55;4.20;;;10.60;99.90;;;;;;5541349;26;19989;-44
2024/04/08 02:38:26;;;;;;;28.77;4.00;;;10.70;99.90;;;;;;5511957;26;19993;-44
2024/04/08 02:40:52;;;;;;;23.50;5.20;;;10.70;99.90;;;;;;5542820;26;20109;-44
2024/04/08 02:43:17;;;;;;;28.98;4.38;;;10.70;99.90;;;;;;5542932;26;20039;-44
2024/04/08 02:45:43;;;;;;;27.90;3.97;;;10.70;99.90;;;;;;5542545;26;20005;-44
2024/04/08 02:48:09;;;;;;;23.00;4.22;;;10.70;99.90;;;;;;5511274;26;20000;-44
2024/04/08 02:50:34;;;;;;;29.52;4.63;;;10.70;99.90;;;;;;5542614;26;20055;-44
2024/04/08 02:53:00;;;;;;;39.60;4.70;;;10.70;99.90;;;;;;5542823;26;20009;-46
2024/04/08 02:55:25;;;;;;;28.33;4.45;;;10.70;99.90;;;;;;5542782;26;19985;-45
2024/04/08 02:57:51;;;;;;;27.85;4.00;;;10.70;99.90;;;;;;5542287;26;19990;-45
2024/04/08 03:00:17;;;;;;;30.02;4.60;;;10.70;99.90;;;;;;5543032;26;19991;-46
2024/04/08 03:02:45;;;;;;;34.58;5.00;;;10.70;99.90;;;;;;5542405;26;19993;-44
2024/04/08 03:05:11;;;;;;;28.98;4.60;;;10.70;99.90;;;;;;5542434;26;20175;-46
2024/04/08 03:07:36;;;;;;;30.23;4.40;;;10.70;99.90;;;;;;5542289;26;19996;-44
2024/04/08 03:10:02;;;;;;;32.88;4.47;;;10.70;99.90;;;;;;5542444;26;19989;-47
2024/04/08 03:12:28;;;;;;;24.88;5.00;;;10.70;99.90;;;;;;5542248;26;20055;-45
2024/04/08 03:14:54;;;;;;;39.83;5.53;;;10.80;99.90;;;;;;5542267;26;19989;-45
2024/04/08 03:17:19;;;;;;;29.95;4.63;;;10.80;99.90;;;;;;5542326;26;19989;-46
2024/04/08 03:19:45;;;;;;;36.67;5.20;;;10.80;99.90;;;;;;5542014;26;20171;-44
2024/04/08 03:22:11;;;;;;;26.60;3.88;;;10.70;99.90;;;;;;5542346;26;19992;-45
2024/04/08 03:24:37;;;;;;;31.85;4.82;;;10.70;99.90;;;;;;5510481;26;20025;-44
2024/04/08 03:27:03;;;;;;;31.00;4.85;;;10.70;99.90;;;;;;5541928;26;19997;-44
2024/04/08 03:29:28;;;;;;;27.92;5.35;;;10.70;99.90;;;;;;5541984;26;19986;-44
2024/04/08 03:31:54;;;;;;;32.33;4.93;;;10.70;99.90;;;;;;5541678;26;19996;-44
2024/04/08 03:34:20;;;;;;;25.50;3.70;;;10.70;99.90;;;;;;5542018;26;19985;-44
2024/04/08 03:36:45;;;;;;;28.85;4.95;;;10.70;99.90;;;;;;5542026;26;19986;-44
2024/04/08 03:39:11;;;;;;;27.73;4.22;;;10.70;99.90;;;;;;5541923;26;19986;-45
2024/04/08 03:41:37;;;;;;;20.65;3.22;;;10.70;99.90;;;;;;5541909;26;20034;-48
2024/04/08 03:44:02;;;;;;;31.33;4.90;;;10.70;99.90;;;;;;5541709;26;19990;-45
2024/04/08 03:46:28;;;;;;;26.33;4.30;;;10.70;99.90;;;;;;5542945;25;20159;-44
2024/04/08 03:48:54;;;;;;;27.25;4.30;;;10.70;99.90;;;;;;5545483;26;19990;-44
2024/04/08 03:51:19;;;;;;;22.52;4.30;;;10.70;99.90;;;;;;5545438;26;20038;-46
2024/04/08 03:53:46;;;;;;;22.15;3.70;;;10.70;99.90;;;;;;5545261;26;19986;-46
2024/04/08 03:56:12;;;;;;;25.52;3.90;;;10.70;99.90;;;;;;5545295;26;20160;-47
2024/04/08 03:58:37;;;;;;;21.25;3.83;;;10.70;99.90;;;;;;5545348;26;19989;-45
2024/04/08 04:04:46;;;;;;;25.30;4.57;;;10.60;99.90;;;;;;5545770;26;19992;-45
2024/04/08 04:07:12;;;;;;;27.63;4.07;;;10.60;99.90;;;;;;5545049;26;19990;-47
2024/04/08 04:09:38;;;;;;;24.45;3.33;;;10.60;99.90;;;;;;5544898;26;19997;-46
2024/04/08 04:12:04;;;;;;;17.80;3.20;;;10.50;99.90;;;;;;5545080;26;20007;-45
2024/04/08 04:14:29;;;;;;;19.67;3.10;;;10.50;99.90;;;;;;5544700;26;20164;-44
2024/04/08 04:16:55;;;;;;;24.02;3.45;;;10.50;99.90;;;;;;5544974;26;20042;-45
2024/04/08 04:19:21;;;;;;;20.65;3.25;;;10.40;99.90;;;;;;5544879;26;20017;-45
2024/04/08 04:21:46;;;;;;;21.05;3.83;;;10.40;99.90;;;;;;5544779;26;19989;-43
2024/04/08 04:24:12;;;;;;;18.70;3.05;;;10.40;99.90;;;;;;5545009;26;19990;-44
2024/04/08 04:26:37;;;;;;;23.83;4.13;;;10.40;99.90;;;;;;5544624;26;19990;-45
2024/04/08 04:29:03;;;;;;;22.08;3.20;;;10.30;99.90;;;;;;5544815;26;20042;-46
2024/04/08 04:31:41;;;;;;;19.98;3.30;;;10.30;99.90;;;;;;5544707;26;19990;-45
2024/04/08 04:34:06;;;;;;;19.00;2.92;;;10.30;99.90;;;;;;5544774;26;19985;-47
2024/04/08 04:36:32;;;;;;;14.13;2.53;;;10.30;99.90;;;;;;5544855;26;19992;-47
2024/04/08 04:38:57;;;;;;;13.90;2.50;;;10.30;99.90;;;;;;5544770;26;19986;-46
2024/04/08 04:41:23;;;;;;;23.83;3.08;;;10.30;99.90;;;;;;5544693;26;20014;-47
2024/04/08 04:43:49;;;;;;;17.00;3.05;;;10.30;99.90;;;;;;5544288;26;20010;-45
2024/04/08 04:46:14;;;;;;;21.77;3.42;;;10.30;99.90;;;;;;5544566;26;19992;-45
2024/04/08 04:48:40;;;;;;;15.27;2.20;;;10.40;99.90;;;;;;5544235;26;19985;-43
2024/04/08 04:51:06;;;;;;;21.08;2.60;;;10.30;99.90;;;;;;5544168;26;19985;-46
2024/04/08 04:53:31;;;;;;;13.23;3.08;;;10.40;99.90;;;;;;5513065;26;19997;-46
2024/04/08 04:55:57;;;;;;;19.48;2.58;;;10.40;99.90;;;;;;5544115;26;20059;-46
2024/04/08 04:58:23;;;;;;;15.13;2.42;;;10.30;99.90;;;;;;5543267;26;20017;-48
2024/04/08 05:00:49;;;;;;;11.05;2.20;;;10.40;99.90;;;;;;5512920;26;19989;-46
2024/04/08 05:03:15;;;;;;;14.35;2.50;;;10.40;99.90;;;;;;5544289;26;19989;-48
2024/04/08 05:05:41;;;;;;;11.40;2.70;;;10.30;99.90;;;;;;5543965;26;19985;-47
2024/04/08 05:08:07;;;;;;;13.93;2.30;;;10.40;99.90;;;;;;5512531;26;20003;-44
2024/04/08 05:10:32;;;;;;;11.07;2.33;;;10.40;99.90;;;;;;5544260;26;20001;-47
2024/04/08 05:12:58;;;;;;;19.20;3.10;;;10.30;99.90;;;;;;5544333;26;19999;-45
2024/04/08 05:15:24;;;;;;;16.52;2.83;;;10.30;99.90;;;;;;5543965;26;19989;-48
2024/04/08 05:17:50;;;;;;;14.98;2.28;;;10.30;99.90;;;;;;5543857;26;19985;-45
2024/04/08 05:20:16;;;;;;;18.00;2.90;;;10.30;99.90;;;;;;5543693;26;20034;-47
2024/04/08 05:22:47;;;;;;;19.75;3.58;;;10.30;99.90;;;;;;5544000;26;19985;-47
2024/04/08 05:25:13;;;;;;;15.30;2.50;;;10.40;99.90;;;;;;5543710;26;20000;-46
2024/04/08 05:27:39;;;;;;;20.38;2.90;;;10.40;99.90;;;;;;5512467;26;19985;-46
2024/04/08 05:30:06;;;;;;;14.95;2.85;;;10.50;99.90;;;;;;5543764;26;19986;-47
2024/04/08 05:32:31;;;;;;;13.52;2.65;;;10.50;99.90;;;;;;5543549;26;20012;-47
2024/04/08 05:34:57;;;;;;;16.48;2.67;;;10.50;99.90;;;;;;5543622;26;19990;-44
2024/04/08 05:37:23;;;;;;;11.10;2.40;;;10.60;99.90;;;;;;5511964;26;19997;-44
2024/04/08 05:39:48;;;;;;;17.73;2.80;;;10.60;99.90;;;;;;5543342;26;19989;-46
2024/04/08 05:42:14;;;;;;;13.45;2.55;;;10.50;99.90;;;;;;5543554;26;19990;-44
2024/04/08 05:44:40;;;;;;;13.20;2.70;;;10.50;99.90;;;;;;5511791;26;20151;-43
2024/04/08 05:47:05;;;;;;;12.30;2.88;;;10.50;99.90;;;;;;5542917;26;19993;-47
2024/04/08 05:49:31;;;;;;;9.38;2.58;;;10.60;99.90;;;;;;5518442;26;19989;-48
2024/04/08 05:51:56;;;;;;;21.20;4.05;;;10.60;99.90;;;;;;5542785;26;19992;-46
2024/04/08 05:54:23;;;;;;;17.88;3.72;;;10.50;99.90;;;;;;5543654;26;20097;-48
2024/04/08 05:56:49;;;;;;;15.88;3.35;;;10.60;99.90;;;;;;5543430;25;20033;-45
2024/04/08 05:59:15;;;;;;;11.43;2.75;;;10.50;99.90;;;;;;5543330;25;20001;-46
2024/04/08 06:01:40;;;;;;;15.32;3.08;;;10.60;99.90;;;;;;5543243;26;19990;-47
2024/04/08 06:04:08;;;;;;;14.93;2.70;;;10.60;99.90;;;;;;5543103;26;19989;-45
2024/04/08 06:06:33;;;;;;;18.25;3.10;;;10.60;99.90;;;;;;5543399;25;20039;-45
2024/04/08 06:09:08;;;;;;;10.80;2.58;;;10.70;99.90;;;;;;5542873;26;19986;-47
2024/04/08 06:11:33;;;;;;;14.52;2.67;;;10.70;99.90;;;;;;5541394;26;20164;-45
2024/04/08 06:13:59;;;;;;;13.20;2.47;;;10.70;99.90;;;;;;5542034;26;19989;-46
2024/04/08 06:16:25;;;;;;;9.02;1.92;;;10.70;99.90;;;;;;5543217;25;19989;-44
2024/04/08 06:18:50;;;;;;;11.55;2.40;;;10.60;99.90;;;;;;5543048;26;19989;-44
2024/04/08 06:21:16;;;;;;;11.43;2.72;;;10.60;99.90;;;;;;5543104;26;20052;-46
2024/04/08 06:23:41;;;;;;;9.85;2.20;;;10.60;99.90;;;;;;5542615;26;20043;-44
2024/04/08 06:26:07;;;;;;;11.32;2.72;;;10.60;99.90;;;;;;5542660;26;20190;-45
2024/04/08 06:28:33;;;;;;;15.70;5.60;;;10.40;99.90;;;;;;5543034;26;19996;-45
2024/04/08 06:30:58;;;;;;;13.60;4.10;;;10.30;99.90;;;;;;5542782;26;19997;-47
2024/04/08 06:33:24;;;;;;;17.52;4.18;;;10.30;99.90;;;;;;5542809;25;20199;-45
2024/04/08 06:35:51;;;;;;;16.55;3.25;;;10.30;99.90;;;;;;5542016;26;20021;-45
2024/04/08 06:38:17;;;;;;;11.73;2.50;;;10.20;99.90;;;;;;5542081;25;19985;-45
2024/04/08 06:40:43;;;;;;;11.38;2.65;;;10.10;99.90;;;;;;5542398;26;20058;-44
2024/04/08 06:43:09;;;;;;;11.38;2.30;;;10.10;99.90;;;;;;5542118;26;19985;-46
2024/04/08 06:45:34;;;;;;;9.57;1.75;;;10.10;99.90;;;;;;5541228;26;19986;-45
2024/04/08 06:48:00;;;;;;;9.25;1.90;;;10.00;99.90;;;;;;5541939;26;20047;-44
2024/04/08 06:50:26;;;;;;;11.73;2.13;;;10.10;99.90;;;;;;5542089;25;20159;-44
2024/04/08 06:52:52;;;;;;;10.23;2.10;;;10.10;99.90;;;;;;5541721;26;20026;-44
2024/04/08 06:55:18;;;;;;;8.68;2.17;;;10.20;99.90;;;;;;5542505;26;20080;-45
2024/04/08 06:57:43;;;;;;;11.77;3.42;;;10.20;99.90;;;;;;5541514;25;19986;-44
2024/04/08 07:00:10;;;;;;;12.60;2.53;;;10.20;99.90;;;;;;5542346;26;20038;-43
2024/04/08 07:02:36;;;;;;;12.65;4.30;;;10.30;99.90;;;;;;5541809;25;20025;-43
2024/04/08 07:05:02;;;;;;;12.95;3.45;;;10.30;99.90;;;;;;5541277;26;19998;-43
2024/04/08 07:07:28;;;;;;;8.43;2.22;;;10.30;99.90;;;;;;5541670;25;19993;-43
2024/04/08 07:09:54;;;;;;;12.75;2.80;;;10.30;99.90;;;;;;5541712;26;19985;-44
2024/04/08 07:12:19;;;;;;;11.23;4.35;;;10.40;99.90;;;;;;5541729;26;20001;-43
2024/04/08 07:14:45;;;;;;;13.32;3.03;;;10.40;99.90;;;;;;5542180;26;19985;-44
2024/04/08 07:17:10;;;;;;;8.68;1.80;;;10.40;99.90;;;;;;5542101;26;19992;-43
2024/04/08 07:19:37;;;;;;;8.32;2.20;;;10.50;99.90;;;;;;5541859;26;19985;-44
2024/04/08 07:22:03;;;;;;;10.88;2.03;;;10.50;99.90;;;;;;5541145;26;20014;-43
2024/04/08 07:24:28;;;;;;;7.75;2.70;;;10.50;99.90;;;;;;5541137;26;19985;-44
2024/04/08 07:26:54;;;;;;;6.30;1.67;;;10.60;99.90;;;;;;5541598;25;19989;-44
2024/04/08 07:29:20;;;;;;;10.18;2.28;;;10.60;99.90;;;;;;5541597;26;19985;-43
2024/04/08 07:31:45;;;;;;;6.63;1.50;;;10.60;99.90;;;;;;5540145;26;20044;-43
2024/04/08 07:34:11;;;;;;;11.23;1.98;;;10.60;99.90;;;;;;5541801;26;20048;-47
2024/04/08 07:36:36;;;;;;;8.68;1.98;;;10.50;99.90;;;;;;5540604;26;19985;-47
2024/04/08 07:39:02;;;;;;;8.85;2.08;;;10.50;99.90;;;;;;5509897;26;19989;-44
2024/04/08 07:41:29;;;;;;;8.60;2.33;;;10.50;99.90;;;;;;5541023;25;19989;-47
2024/04/08 07:43:54;;;;;;;11.95;2.40;;;10.50;99.90;;;;;;5540847;25;20042;-45
2024/04/08 07:46:20;;;;;;;9.55;2.47;;;10.50;99.90;;;;;;5539708;26;19997;-44
2024/04/08 07:48:46;;;;;;;8.50;2.58;;;10.50;99.90;;;;;;5540855;25;19989;-46
2024/04/08 07:51:11;;;;;;;9.10;2.97;;;10.50;99.90;;;;;;5541027;26;19994;-43
2024/04/08 07:53:37;;;;;;;5.95;1.77;;;10.50;99.90;;;;;;5539741;25;19990;-45
2024/04/08 07:56:03;;;;;;;6.85;2.00;;;10.60;99.90;;;;;;5540507;26;19993;-45
2024/04/08 07:58:30;;;;;;;9.55;1.83;;;10.70;99.90;;;;;;5540855;25;20039;-44
2024/04/08 08:00:59;;;;;;;7.55;2.47;;;10.70;99.90;;;;;;5540619;25;19989;-45
2024/04/08 08:03:26;;;;;;;9.98;2.03;;;10.80;99.90;;;;;;5539666;26;19992;-45
2024/04/08 08:05:53;;;;;;;10.40;1.80;;;10.90;99.90;;;;;;5540472;25;19985;-44
2024/04/08 08:08:18;;;;;;;6.20;1.48;;;10.90;99.90;;;;;;5541005;25;19989;-44
2024/04/08 08:10:45;;;;;;;7.70;1.95;;;10.90;99.90;;;;;;5540894;26;20005;-44
2024/04/08 08:13:11;;;;;;;8.32;1.70;;;10.90;99.90;;;;;;5539662;26;19993;-46
2024/04/08 08:15:37;;;;;;;5.90;1.83;;;10.90;99.90;;;;;;5539591;26;19982;-44
2024/04/08 08:18:02;;;;;;;7.88;2.70;;;11.10;99.90;;;;;;5539732;26;19985;-44
2024/04/08 08:20:28;;;;;;;9.95;2.30;;;11.20;99.90;;;;;;5540089;26;19988;-44
2024/04/08 08:22:56;;;;;;;7.35;2.10;;;11.20;99.90;;;;;;5540512;26;19989;-44
2024/04/08 08:25:25;;;;;;;5.10;1.35;;;11.20;99.90;;;;;;5540358;25;20229;-44
2024/04/08 08:27:51;;;;;;;6.28;1.83;;;11.20;99.90;;;;;;5539424;26;19995;-44
2024/04/08 08:30:17;;;;;;;7.00;1.60;;;11.10;99.90;;;;;;5539441;26;19993;-44
2024/04/08 08:32:44;;;;;;;6.93;1.60;;;11.10;99.90;;;;;;5539931;26;20001;-44
2024/04/08 08:35:10;;;;;;;6.57;1.33;;;11.10;99.90;;;;;;5544075;25;20040;-45
2024/04/08 08:37:36;;;;;;;8.68;2.10;;;11.20;99.90;;;;;;5543545;25;19985;-43
2024/04/08 08:40:02;;;;;;;3.33;1.50;;;11.60;99.90;;;;;;5543276;25;19997;-48
2024/04/08 08:42:29;;;;;;;5.00;1.50;;;11.90;99.90;;;;;;5543595;25;19992;-48
2024/04/08 08:44:55;;;;;;;4.72;1.50;;;12.00;99.90;;;;;;5544072;25;19998;-47
2024/04/08 08:47:22;;;;;;;8.23;2.97;;;12.00;99.90;;;;;;5542085;26;19994;-46
2024/04/08 08:49:55;;;;;;;13.35;4.95;;;12.00;99.90;;;;;;5542367;26;19986;-47
2024/04/08 08:52:21;;;;;;;4.57;1.30;;;12.10;99.90;;;;;;5542333;26;19985;-48
2024/04/08 08:54:47;;;;;;;3.97;1.20;;;12.20;99.90;;;;;;5543312;26;19990;-47
2024/04/08 08:57:13;;;;;;;9.02;1.52;;;12.20;99.90;;;;;;5543941;25;19993;-46
2024/04/08 08:59:39;;;;;;;4.72;1.20;;;12.30;99.90;;;;;;5542702;26;19989;-47
2024/04/08 09:02:05;;;;;;;6.97;1.55;;;12.10;99.90;;;;;;5543301;26;20000;-48
2024/04/08 09:04:31;;;;;;;4.15;1.42;;;12.10;99.90;;;;;;5543935;25;19989;-46
2024/04/08 09:06:56;;;;;;;5.35;1.25;;;12.00;99.90;;;;;;5543776;26;19985;-47
2024/04/08 09:09:22;;;;;;;8.05;1.65;;;12.20;99.90;;;;;;5543724;25;20073;-46
2024/04/08 09:11:48;;;;;;;7.55;1.60;;;12.50;99.90;;;;;;5542944;25;20013;-48
2024/04/08 09:14:14;;;;;;;3.65;1.20;;;12.50;99.90;;;;;;5542623;26;20014;-46
2024/04/08 09:16:40;;;;;;;10.18;2.20;;;12.70;99.90;;;;;;5543035;25;20002;-47
2024/04/08 09:19:05;;;;;;;5.18;1.75;;;12.60;99.90;;;;;;5542938;26;20056;-46
2024/04/08 09:21:31;;;;;;;7.47;1.58;;;12.70;99.90;;;;;;5542679;25;20014;-47
2024/04/08 09:24:04;;;;;;;9.45;1.50;;;12.70;99.90;;;;;;5542694;26;19995;-47
2024/04/08 09:26:29;;;;;;;12.35;1.90;;;13.10;99.90;;;;;;5543187;25;19992;-45
2024/04/08 09:28:55;;;;;;;8.43;1.73;;;13.60;99.90;;;;;;5541871;26;20172;-46
2024/04/08 09:31:21;;;;;;;19.55;2.55;;;13.80;99.90;;;;;;5542920;26;20013;-48
2024/04/08 09:33:47;;;;;;;13.88;2.20;;;14.30;99.90;;;;;;5542663;26;19996;-47
2024/04/08 09:36:13;;;;;;;11.88;1.95;;;14.80;99.90;;;;;;5541757;26;20148;-48
2024/04/08 09:38:39;;;;;;;15.35;2.60;;;15.20;99.90;;;;;;5543061;25;19985;-48
2024/04/08 09:41:05;;;;;;;11.75;2.22;;;15.40;99.90;;;;;;5511024;26;20071;-47
2024/04/08 09:43:31;;;;;;;16.95;2.90;;;15.80;99.90;;;;;;5510924;26;20161;-49
2024/04/08 09:45:58;;;;;;;6.93;1.65;;;16.20;99.90;;;;;;5541176;26;19994;-48
2024/04/08 09:48:23;;;;;;;12.02;2.40;;;16.20;99.90;;;;;;5511334;26;19989;-49
2024/04/08 09:50:49;;;;;;;15.75;2.70;;;16.20;99.90;;;;;;5541588;26;20158;-48
2024/04/08 09:53:15;;;;;;;12.05;3.15;;;15.90;99.90;;;;;;5540905;26;19989;-45
2024/04/08 09:55:41;;;;;;;8.50;1.98;;;15.80;99.90;;;;;;5542098;26;20159;-50
2024/04/08 09:58:09;;;;;;;5.07;1.73;;;15.80;99.90;;;;;;5542077;25;20190;-49
2024/04/08 10:00:36;;;;;;;7.50;1.73;;;16.40;99.90;;;;;;5510960;26;19992;-49
2024/04/08 10:03:07;;;;;;;12.95;2.42;;;17.30;99.90;;;;;;5542738;25;19990;-49
2024/04/08 10:05:33;;;;;;;11.05;2.28;;;17.20;99.90;;;;;;5541985;25;19990;-47
2024/04/08 10:07:58;;;;;;;14.75;3.78;;;17.30;99.90;;;;;;5541336;26;20076;-49
2024/04/08 10:10:25;;;;;;;11.02;1.85;;;17.30;99.90;;;;;;5540778;26;20094;-48
2024/04/08 10:12:52;;;;;;;10.88;2.22;;;16.90;99.90;;;;;;5541456;26;20009;-47
2024/04/08 10:15:21;;;;;;;10.80;1.65;;;16.90;99.90;;;;;;5542532;25;19986;-48
2024/04/08 10:17:48;;;;;;;9.00;2.28;;;16.90;99.90;;;;;;5541132;26;19986;-48
2024/04/08 10:20:15;;;;;;;12.82;2.22;;;16.90;99.90;;;;;;5542379;25;20010;-49
2024/04/08 10:22:41;;;;;;;13.57;2.70;;;17.10;99.90;;;;;;5541844;25;20048;-49
2024/04/08 10:25:36;;;;;;;9.02;1.50;;;18.00;99.90;;;;;;5542157;26;19997;-49
2024/04/08 10:28:15;;;;;;;9.38;1.70;;;18.10;99.90;;;;;;5541754;25;19994;-47
2024/04/08 10:30:43;;;;;;;9.55;1.85;;;17.80;99.90;;;;;;5542118;26;19989;-48
2024/04/08 10:33:10;;;;;;;9.25;1.95;;;17.10;99.90;;;;;;5542190;25;20051;-49
2024/04/08 10:35:35;;;;;;;9.40;2.25;;;17.20;99.90;;;;;;5542306;25;19992;-46
2024/04/08 10:38:01;;;;;;;11.80;2.00;;;17.40;99.90;;;;;;5541639;26;19997;-47
2024/04/08 10:40:27;;;;;;;7.10;1.70;;;18.10;99.90;;;;;;5541133;26;20074;-49
2024/04/08 10:42:53;;;;;;;11.52;3.63;;;17.40;99.90;;;;;;5540821;26;20152;-49
2024/04/08 10:45:19;;;;;;;6.70;2.33;;;18.30;99.90;;;;;;5541280;25;20063;-48
2024/04/08 10:47:46;;;;;;;7.30;1.65;;;19.30;99.90;;;;;;5540170;26;19994;-49
2024/04/08 10:50:11;;;;;;;6.03;1.85;;;17.80;99.90;;;;;;5541597;25;19985;-49
2024/04/08 10:52:39;;;;;;;5.28;1.73;;;17.20;99.90;;;;;;5541019;26;20036;-49
2024/04/08 10:55:05;;;;;;;8.93;2.55;;;16.80;99.90;;;;;;5540728;26;20038;-45
2024/04/08 10:57:31;;;;;;;11.32;1.85;;;16.70;99.90;;;;;;5540042;25;20056;-49
2024/04/08 10:59:57;;;;;;;8.43;1.92;;;16.50;99.90;;;;;;5540674;26;19995;-46
2024/04/08 11:02:22;;;;;;;12.90;2.55;;;16.20;99.90;;;;;;5540716;26;19989;-49
2024/04/08 11:04:48;;;;;;;11.80;3.70;;;15.90;99.90;;;;;;5540457;26;19989;-48
2024/04/08 11:07:14;;;;;;;18.83;9.45;;;15.70;99.90;;;;;;5509620;26;19986;-49
2024/04/08 11:09:39;;;;;;;8.10;2.58;;;15.30;99.90;;;;;;5540882;25;20148;-45
2024/04/08 11:12:06;;;;;;;11.55;3.88;;;15.40;99.90;;;;;;5540072;26;19997;-45
2024/04/08 11:14:31;;;;;;;12.95;3.58;;;15.50;99.90;;;;;;5540144;25;20010;-48
2024/04/08 11:17:00;;;;;;;13.18;2.95;;;15.60;99.90;;;;;;5539566;26;20035;-47
2024/04/08 11:19:28;;;;;;;8.50;2.17;;;15.50;99.90;;;;;;5540435;25;19986;-48
2024/04/08 11:21:55;;;;;;;10.93;2.40;;;15.60;99.90;;;;;;5540338;25;19986;-48
2024/04/08 11:24:21;;;;;;;10.48;2.33;;;15.60;99.90;;;;;;5540233;25;19996;-48
2024/04/08 11:26:47;;;;;;;7.97;2.00;;;15.40;99.90;;;;;;5538860;26;20094;-48
2024/04/08 11:29:13;;;;;;;12.35;2.22;;;15.20;99.90;;;;;;5540923;25;20090;-48
2024/04/08 11:31:39;;;;;;;8.57;2.15;;;14.90;99.90;;;;;;5540129;26;19992;-48
2024/04/08 11:34:04;;;;;;;4.07;1.38;;;14.90;99.90;;;;;;5539212;26;20048;-48
2024/04/08 11:36:30;;;;;;;10.30;2.85;;;14.90;99.90;;;;;;5540431;26;19992;-48
2024/04/08 11:38:56;;;;;;;8.38;1.45;;;14.70;99.90;;;;;;5540186;25;19997;-46
2024/04/08 11:41:22;;;;;;;11.20;1.77;;;14.50;99.90;;;;;;5540654;26;19989;-49
2024/04/08 11:43:48;;;;;;;6.63;1.73;;;14.20;99.90;;;;;;5540284;25;20043;-48
2024/04/08 11:46:14;;;;;;;12.40;2.55;;;14.00;99.90;;;;;;5540418;26;20183;-48
2024/04/08 11:48:41;;;;;;;5.30;1.55;;;13.90;99.90;;;;;;5539716;26;19990;-44
2024/04/08 11:51:08;;;;;;;9.15;1.80;;;13.70;99.90;;;;;;5540151;26;19996;-48
2024/04/08 11:53:33;;;;;;;5.53;1.45;;;13.60;99.90;;;;;;5538600;26;20000;-45
2024/04/08 11:55:59;;;;;;;5.13;1.50;;;13.50;99.90;;;;;;5539903;26;20047;-46
2024/04/08 11:58:25;;;;;;;6.35;1.50;;;13.60;99.90;;;;;;5539136;26;20042;-48
2024/04/08 12:00:50;;;;;;;7.55;1.92;;;13.50;99.90;;;;;;5540464;25;20005;-49
2024/04/08 12:03:16;;;;;;;10.10;1.75;;;13.40;99.90;;;;;;5540413;26;19989;-48
2024/04/08 12:05:43;;;;;;;9.88;2.10;;;13.30;99.90;;;;;;5539769;26;19986;-46
2024/04/08 12:08:09;;;;;;;9.50;1.83;;;13.30;99.90;;;;;;5541779;25;20038;-46
2024/04/08 12:10:34;;;;;;;6.63;1.75;;;13.30;99.90;;;;;;5543169;26;19993;-47
2024/04/08 12:13:14;;;;;;;10.13;1.70;;;13.30;99.90;;;;;;5543703;26;19993;-45
2024/04/08 12:15:40;;;;;;;9.60;1.70;;;13.30;99.90;;;;;;5543049;25;20070;-45
2024/04/08 12:18:05;;;;;;;6.80;2.03;;;13.40;99.90;;;;;;5543422;26;19989;-46
2024/04/08 12:20:31;;;;;;;11.77;2.60;;;13.60;99.90;;;;;;5543467;26;20001;-47
2024/04/08 12:22:57;;;;;;;9.77;2.13;;;13.70;99.90;;;;;;5542860;26;20169;-45
2024/04/08 12:25:22;;;;;;;9.60;1.70;;;13.70;99.90;;;;;;5543070;26;20013;-45
2024/04/08 12:27:48;;;;;;;11.00;2.13;;;13.80;99.90;;;;;;5543042;26;20021;-46
2024/04/08 12:30:13;;;;;;;7.13;1.95;;;13.80;99.90;;;;;;5543313;26;19989;-47
2024/04/08 12:32:39;;;;;;;6.05;1.42;;;13.80;99.90;;;;;;5542856;26;19990;-46
2024/04/08 12:35:05;;;;;;;7.32;1.20;;;13.80;99.90;;;;;;5543268;26;20035;-47
2024/04/08 12:37:31;;;;;;;7.32;1.73;;;13.70;99.90;;;;;;5543609;25;19986;-47